Burlington International Airport Burlington US
ICAO: KBTV
IATA: BTV
Category: Medium
Scheduled Services: Yes

Elevation: 335 ft
TransAlt. 18000 ft.

Airport Communications:
APP/DEP:121.1
ATIS:123.8
CTAF:118.3
GND:121.9
ANG OPS:125.125
ARNG OPS:41.2
RDO:122.2
TWR:118.3
UNICOM:122.95

KBTV Zoom In..

If you have problems with the map follow the link
https://www.worldairports.se/pages/airport.php?
ICAO=KBTV

Runways:

(A) RW 01 length 3611 ft width 75 ft
---- / hdg 6

(B) RW 15 length 8320 ft width 150 ft
ILS 110.30 / hdg 146

(C) RW 19 length 3611 ft width 75 ft
---- / hdg 186

(D) RW 33 length 8320 ft width 150 ft
ILS 110.30 / hdg 326

Location; KBTV
Day. 21 / Time. 18.54 Zulu
* Altimeter: 29.96
* Temperature: 04° c. 39.2°f.
* Wind from: 300° Speed 16 kn with Gusts up to 25 kn.
Dewpoint: -07° c.
Visibility: 10 Statute Miles.
Clouds: Overcast 4900 ft.

KBTV 211854Z 30016G25KT 10SM OVC049 04/M07 A2996 RMK AO2 PK WND 31026/1758 SNE33 SLP147 P0000 T00391067


Wind From 300°
Speed 16 kn.

 
 
jpsmedia.com for Web Design worldairports.se 2018   terms of use